Time;durP1;ratioP1;P1;durP2;ratioP2;P2;SDS_P1;SDS_P2;PMS_P1;PMS_P2;Temp;Humidity;BMP_temperature;BMP_pressure;BME280_temperature;BME280_humidity;BME280_pressure;Samples;Min_cycle;Max_cycle;Signal;HPM_P1;HPM_P2
2022/01/02 00:02:15;;;;;;;10.35;5.85;;;;;;;9.38;59.76;94589.31;5020890;28;20079;-75
2022/01/02 00:04:47;;;;;;;7.55;5.85;;;;;;;9.36;59.24;94572.88;5016995;28;20030;-75
2022/01/02 00:07:15;;;;;;;6.32;5.13;;;;;;;9.56;59.09;94603.66;5024464;28;20079;-75
2022/01/02 00:09:45;;;;;;;11.85;6.68;;;;;;;9.46;59.29;94590.53;4998788;28;20497;-75
2022/01/02 00:12:13;;;;;;;8.57;5.68;;;;;;;9.55;59.32;94590.66;5026540;28;20056;-75
2022/01/02 00:14:52;;;;;;;8.48;5.55;;;;;;;9.52;59.35;94610.63;5018241;28;20060;-75
2022/01/02 00:17:22;;;;;;;8.23;5.47;;;;;;;9.49;59.26;94583.88;5021671;28;20056;-75
2022/01/02 00:19:53;;;;;;;11.32;5.93;;;;;;;9.61;59.14;94605.47;5024007;28;20032;-76
2022/01/02 00:22:35;;;;;;;10.05;6.50;;;;;;;9.48;59.29;94599.00;5022513;28;20289;-76
2022/01/02 00:25:05;;;;;;;7.30;5.18;;;;;;;9.33;59.87;94607.19;5026595;28;20706;-75
2022/01/02 00:27:34;;;;;;;13.23;6.13;;;;;;;9.30;59.96;94597.91;5023995;28;20405;-76
2022/01/02 00:30:02;;;;;;;10.30;4.95;;;;;;;9.11;60.38;94596.25;5016890;28;20080;-76
2022/01/02 00:32:29;;;;;;;8.77;5.25;;;;;;;9.10;60.65;94605.28;5013796;28;20053;-75
2022/01/02 00:34:55;;;;;;;7.00;5.47;;;;;;;9.23;60.29;94600.13;5018011;28;20235;-75
2022/01/02 00:37:20;;;;;;;10.48;5.72;;;;;;;9.40;60.03;94607.59;5029223;28;20826;-75
2022/01/02 00:39:46;;;;;;;9.13;5.75;;;;;;;9.53;59.06;94611.44;5000054;28;20163;-75
2022/01/02 00:42:19;;;;;;;8.18;5.63;;;;;;;9.17;59.11;94558.81;5021414;28;20405;-76
2022/01/02 00:45:00;;;;;;;9.20;5.43;;;;;;;9.15;59.58;94573.41;5016977;28;20033;-75
2022/01/02 00:47:31;;;;;;;7.80;5.10;;;;;;;9.33;59.42;94600.00;5013778;28;20088;-76
2022/01/02 00:50:12;;;;;;;10.35;4.82;;;;;;;9.38;59.20;94597.28;5028234;28;20495;-75
2022/01/02 00:52:43;;;;;;;8.50;5.63;;;;;;;9.33;59.15;94594.69;5010835;28;20537;-76
2022/01/02 00:55:20;;;;;;;5.97;4.93;;;;;;;9.35;59.14;94597.84;5015207;28;20063;-76
2022/01/02 00:57:56;;;;;;;6.75;5.07;;;;;;;9.51;58.95;94594.97;5019001;28;20128;-76
2022/01/02 01:00:22;;;;;;;9.73;5.68;;;;;;;9.69;58.15;94604.81;5019567;28;20527;-76
2022/01/02 01:02:53;;;;;;;7.97;5.57;;;;;;;9.72;57.82;94602.38;5004575;28;20037;-76
2022/01/02 01:05:32;;;;;;;8.35;4.80;;;;;;;9.76;57.39;94602.59;5015803;28;20038;-76
2022/01/02 01:08:00;;;;;;;7.22;4.57;;;;;;;9.79;57.20;94599.34;5019040;28;20089;-75
2022/01/02 01:10:28;;;;;;;7.22;4.80;;;;;;;9.74;57.45;94600.22;5029231;28;20025;-76
2022/01/02 01:13:01;;;;;;;7.57;5.05;;;;;;;9.86;56.99;94607.75;5010405;28;20579;-75
2022/01/02 01:15:29;;;;;;;7.38;4.43;;;;;;;9.94;56.52;94619.59;4998763;28;20132;-76
2022/01/02 01:17:57;;;;;;;5.88;4.32;;;;;;;9.51;56.80;94571.88;5013994;28;20048;-75
2022/01/02 01:20:25;;;;;;;6.90;4.55;;;;;;;9.82;56.84;94612.06;5014879;28;20456;-76
2022/01/02 01:22:50;;;;;;;7.75;5.07;;;;;;;9.90;56.29;94619.38;5025675;28;20358;-76
2022/01/02 01:25:23;;;;;;;6.97;4.55;;;;;;;9.80;56.23;94575.16;5022679;28;20357;-76
2022/01/02 01:27:50;;;;;;;6.90;4.53;;;;;;;10.09;55.48;94595.44;5001292;28;20358;-76
2022/01/02 01:30:19;;;;;;;11.63;4.32;;;;;;;10.07;55.89;94606.38;5004665;28;20041;-76
2022/01/02 01:32:45;;;;;;;4.57;3.50;;;;;;;10.03;55.44;94581.44;5007470;28;20449;-76
2022/01/02 01:35:12;;;;;;;7.45;4.57;;;;;;;10.17;55.15;94603.53;5026768;28;20065;-76
2022/01/02 01:37:38;;;;;;;6.05;4.03;;;;;;;10.32;54.90;94599.81;5020558;28;20033;-75
2022/01/02 01:40:06;;;;;;;4.78;3.63;;;;;;;10.28;54.48;94589.00;5010148;28;20316;-76
2022/01/02 01:42:36;;;;;;;4.57;3.75;;;;;;;10.15;54.85;94584.44;5021994;28;20615;-76
2022/01/02 01:47:43;;;;;;;5.25;3.97;;;;;;;10.16;54.73;94603.84;5014401;28;20291;-75
2022/01/02 01:50:09;;;;;;;6.55;3.78;;;;;;;9.90;55.63;94608.75;5024171;28;20266;-75
2022/01/02 01:52:34;;;;;;;6.40;4.10;;;;;;;9.73;55.97;94605.84;5005212;28;21270;-75
2022/01/02 01:55:00;;;;;;;5.10;3.70;;;;;;;9.59;56.52;94607.59;5025031;28;20181;-75
2022/01/02 01:57:31;;;;;;;4.45;3.72;;;;;;;9.54;56.24;94589.88;5012696;28;20043;-74
2022/01/02 01:59:56;;;;;;;5.60;3.55;;;;;;;9.59;56.54;94603.09;5016480;28;20056;-75
2022/01/02 02:02:23;;;;;;;6.85;4.05;;;;;;;9.71;56.12;94605.31;5013031;28;20052;-76
2022/01/02 02:04:49;;;;;;;9.13;4.72;;;;;;;9.57;56.21;94605.25;5017165;28;20033;-74
2022/01/02 02:07:15;;;;;;;6.28;4.38;;;;;;;9.52;56.25;94580.63;5019135;28;20866;-75
2022/01/02 02:10:05;;;;;;;5.97;4.75;;;;;;;9.66;56.36;94592.09;5018588;28;20049;-75
2022/01/02 02:12:30;;;;;;;5.18;3.92;;;;;;;9.51;56.83;94605.59;5017798;28;20048;-76
2022/01/02 02:14:56;;;;;;;5.60;4.30;;;;;;;9.53;56.91;94598.16;5019390;28;20064;-77
2022/01/02 02:17:23;;;;;;;4.97;3.50;;;;;;;9.67;56.23;94589.19;4990096;28;20099;-74
2022/01/02 02:19:49;;;;;;;4.85;3.80;;;;;;;9.81;56.11;94589.22;5022318;28;20500;-76
2022/01/02 02:22:15;;;;;;;6.00;4.38;;;;;;;9.65;56.08;94598.50;5019680;28;20036;-76
2022/01/02 02:24:41;;;;;;;5.68;3.92;;;;;;;9.49;56.32;94581.22;5013283;28;20095;-75
2022/01/02 02:27:06;;;;;;;6.15;3.72;;;;;;;9.65;56.13;94595.84;5025792;28;20052;-76
2022/01/02 02:29:31;;;;;;;5.15;3.80;;;;;;;9.71;55.73;94594.69;5020721;28;20417;-75
2022/01/02 02:31:58;;;;;;;5.90;3.50;;;;;;;9.68;55.53;94584.66;5016657;28;20539;-76
2022/01/02 02:34:31;;;;;;;6.22;4.50;;;;;;;9.79;55.32;94589.50;5026233;28;20040;-75
2022/01/02 02:36:57;;;;;;;5.75;4.03;;;;;;;9.78;55.59;94592.47;5007607;28;20044;-76
2022/01/02 02:39:22;;;;;;;7.15;4.63;;;;;;;9.79;55.07;94594.81;5014115;28;20055;-76
2022/01/02 02:41:47;;;;;;;5.45;3.45;;;;;;;9.71;55.48;94582.19;5006650;28;20172;-75
2022/01/02 02:44:28;;;;;;;5.00;3.47;;;;;;;9.58;55.40;94576.84;5014611;28;20033;-75
2022/01/02 02:49:39;;;;;;;5.78;3.78;;;;;;;9.63;55.58;94582.88;5009066;28;20088;-76
2022/01/02 02:52:17;;;;;;;5.57;3.90;;;;;;;9.43;55.37;94552.06;5017880;28;20459;-76
2022/01/02 02:54:51;;;;;;;3.45;3.13;;;;;;;9.62;55.28;94578.63;5021374;28;20033;-75
2022/01/02 02:57:18;;;;;;;4.07;3.67;;;;;;;9.60;55.39;94602.00;5020966;28;20056;-75
2022/01/02 02:59:43;;;;;;;5.38;3.45;;;;;;;9.62;55.53;94602.53;5002633;28;20405;-76
2022/01/02 03:02:09;;;;;;;4.75;3.58;;;;;;;9.66;55.19;94608.84;5010473;28;20446;-75
2022/01/02 03:04:34;;;;;;;5.72;3.97;;;;;;;9.64;54.85;94599.56;5021605;28;20032;-76
2022/01/02 03:07:01;;;;;;;5.97;3.75;;;;;;;9.77;54.90;94614.81;5019135;28;20037;-75
2022/01/02 03:10:10;;;;;;;8.93;3.30;;;;;;;9.79;54.69;94612.63;5024247;28;20060;-75
2022/01/02 03:12:15;;;;;;;6.28;3.80;;;;;;;9.66;55.17;94600.06;5010657;28;20044;-76
2022/01/02 03:14:41;;;;;;;4.53;3.10;;;;;;;9.78;54.70;94611.84;5019013;28;20045;-75
2022/01/02 03:17:06;;;;;;;7.47;3.72;;;;;;;9.86;54.92;94621.84;5017775;28;20538;-74
2022/01/02 03:19:37;;;;;;;5.10;3.60;;;;;;;9.93;54.61;94629.41;5012150;28;20040;-75
2022/01/02 03:22:05;;;;;;;15.68;4.43;;;;;;;9.93;54.72;94626.75;4998204;28;20615;-76
2022/01/02 03:24:30;;;;;;;6.15;4.07;;;;;;;9.99;54.36;94612.31;5016556;28;20041;-76
2022/01/02 03:26:56;;;;;;;6.82;4.45;;;;;;;9.97;54.73;94622.47;5016987;28;20033;-75
2022/01/02 03:29:23;;;;;;;5.70;3.92;;;;;;;10.00;54.26;94621.88;5016698;28;20500;-74
2022/01/02 03:31:49;;;;;;;6.43;4.03;;;;;;;9.78;54.91;94611.06;5008407;28;20045;-75
2022/01/02 03:34:17;;;;;;;8.55;4.63;;;;;;;9.61;55.18;94598.28;5019126;28;20485;-75
2022/01/02 03:36:43;;;;;;;5.43;3.90;;;;;;;9.86;55.35;94621.03;5021366;28;20087;-75
2022/01/02 03:39:08;;;;;;;8.48;4.75;;;;;;;9.87;55.06;94614.66;5017751;28;20053;-75
2022/01/02 03:41:33;;;;;;;5.45;3.97;;;;;;;9.64;55.44;94600.34;5013986;28;20041;-75
2022/01/02 03:44:02;;;;;;;7.22;4.63;;;;;;;9.74;55.53;94605.53;5022951;28;20165;-76
2022/01/02 03:46:27;;;;;;;6.25;4.05;;;;;;;9.96;54.97;94618.22;5022078;28;20476;-76
2022/01/02 03:48:53;;;;;;;5.20;3.20;;;;;;;10.08;54.48;94593.84;5000662;28;20677;-76
2022/01/02 03:51:18;;;;;;;5.25;3.92;;;;;;;10.19;53.74;94601.38;5022550;28;20108;-75
2022/01/02 03:53:43;;;;;;;4.57;3.45;;;;;;;10.10;53.75;94587.19;5027311;28;20869;-76
2022/01/02 03:56:11;;;;;;;5.10;3.73;;;;;;;10.11;54.51;94610.03;5006191;28;20038;-75
2022/01/02 03:58:36;;;;;;;5.00;3.72;;;;;;;9.88;54.47;94594.94;5026642;28;20028;-76
2022/01/02 04:01:02;;;;;;;5.25;3.78;;;;;;;9.88;54.65;94590.44;5003630;28;20326;-76
2022/01/02 04:03:27;;;;;;;6.95;3.70;;;;;;;9.94;54.77;94603.63;5025618;28;20424;-75
2022/01/02 04:05:53;;;;;;;7.30;3.95;;;;;;;9.87;54.81;94598.72;5018612;28;20040;-76
2022/01/02 04:08:18;;;;;;;4.78;3.40;;;;;;;9.92;54.60;94603.94;5020859;28;20107;-76
2022/01/02 04:10:43;;;;;;;6.07;3.95;;;;;;;9.86;54.74;94619.16;5031219;28;20029;-76
2022/01/02 04:13:09;;;;;;;5.85;3.90;;;;;;;9.76;54.77;94614.00;5015967;28;20029;-76
2022/01/02 04:15:34;;;;;;;6.45;4.32;;;;;;;9.78;54.92;94603.09;5015632;28;20432;-76
2022/01/02 04:18:00;;;;;;;7.00;4.38;;;;;;;10.05;54.49;94636.97;5019014;28;20410;-76
2022/01/02 04:20:25;;;;;;;6.53;3.60;;;;;;;10.11;54.28;94633.94;5014512;28;20500;-75
2022/01/02 04:22:51;;;;;;;7.93;4.18;;;;;;;10.18;54.49;94626.38;5022441;28;20039;-76
2022/01/02 04:25:16;;;;;;;5.72;4.05;;;;;;;10.02;54.40;94627.72;5005692;28;20024;-75
2022/01/02 04:27:42;;;;;;;7.25;4.15;;;;;;;9.98;54.46;94641.84;5005093;28;20143;-75
2022/01/02 04:30:11;;;;;;;7.85;4.53;;;;;;;9.75;54.84;94627.56;5023020;28;20068;-75
2022/01/02 04:32:39;;;;;;;7.20;3.95;;;;;;;9.76;55.37;94637.13;5000022;28;20120;-75
2022/01/02 04:35:04;;;;;;;5.30;3.47;;;;;;;9.84;55.51;94642.56;4997230;28;20717;-75
2022/01/02 04:37:31;;;;;;;7.53;4.55;;;;;;;9.77;55.60;94623.56;5005137;28;20078;-75
2022/01/02 04:39:56;;;;;;;6.20;4.22;;;;;;;9.66;55.72;94613.34;5016701;28;20433;-76
2022/01/02 04:42:21;;;;;;;6.80;4.45;;;;;;;9.61;55.75;94619.53;5015959;28;20041;-76
2022/01/02 04:44:48;;;;;;;6.30;3.95;;;;;;;9.70;56.04;94638.25;5021003;28;20831;-76
2022/01/02 04:47:13;;;;;;;5.03;3.90;;;;;;;9.57;56.23;94620.41;5012990;28;20065;-75
2022/01/02 04:49:39;;;;;;;6.70;4.68;;;;;;;9.71;56.09;94637.97;5020490;28;20515;-76
2022/01/02 04:52:06;;;;;;;6.50;4.40;;;;;;;9.65;56.38;94643.66;5016239;28;20044;-76
2022/01/02 04:54:31;;;;;;;8.45;4.07;;;;;;;9.77;56.26;94647.47;5017981;28;20404;-76
2022/01/02 04:56:56;;;;;;;7.15;4.90;;;;;;;9.75;55.72;94627.56;5020412;28;20046;-75
2022/01/02 04:59:22;;;;;;;10.00;5.00;;;;;;;9.84;55.80;94645.22;5018703;28;20033;-75
2022/01/02 05:01:47;;;;;;;6.90;3.95;;;;;;;9.98;55.54;94652.47;5021838;28;20440;-75
2022/01/02 05:04:13;;;;;;;6.47;4.43;;;;;;;10.01;55.68;94651.91;5016329;28;20035;-75
2022/01/02 05:06:39;;;;;;;6.65;4.28;;;;;;;9.76;56.10;94634.47;5000308;28;20090;-76
2022/01/02 05:09:04;;;;;;;7.65;4.35;;;;;;;9.98;55.44;94655.91;5015269;28;20187;-76
2022/01/02 05:11:30;;;;;;;7.57;5.13;;;;;;;9.71;55.92;94637.19;5015611;28;20418;-76
2022/01/02 05:13:55;;;;;;;6.90;5.30;;;;;;;9.72;56.10;94644.09;5020389;28;20131;-75
2022/01/02 05:16:21;;;;;;;4.88;4.03;;;;;;;9.42;56.47;94598.28;5008884;28;20403;-76
2022/01/02 05:18:50;;;;;;;8.55;4.82;;;;;;;9.83;56.35;94640.19;5005810;28;20056;-75
2022/01/02 05:21:15;;;;;;;6.22;4.03;;;;;;;9.85;56.29;94648.69;5015458;28;20043;-75
2022/01/02 05:23:42;;;;;;;6.30;3.88;;;;;;;9.79;56.31;94641.84;5022403;28;20045;-75
2022/01/02 05:26:08;;;;;;;8.95;4.63;;;;;;;9.91;56.00;94658.16;5015491;28;20062;-76
2022/01/02 05:28:33;;;;;;;6.20;4.60;;;;;;;9.80;56.40;94654.06;5018573;28;20021;-76
2022/01/02 05:31:06;;;;;;;5.95;4.20;;;;;;;9.86;55.72;94644.94;4999939;28;20429;-76
2022/01/02 05:33:31;;;;;;;5.57;4.10;;;;;;;9.99;55.63;94660.16;5009340;28;20049;-76
2022/01/02 05:35:57;;;;;;;6.32;4.63;;;;;;;9.93;55.75;94665.84;5017088;28;20554;-74
2022/01/02 05:38:22;;;;;;;7.30;4.35;;;;;;;9.78;56.02;94645.59;5017996;28;20516;-76
2022/01/02 05:40:50;;;;;;;10.57;5.13;;;;;;;9.63;56.10;94651.91;5010593;28;20037;-75
2022/01/02 05:43:15;;;;;;;6.75;4.10;;;;;;;9.69;56.71;94663.25;5007801;28;20583;-76
2022/01/02 05:45:41;;;;;;;10.35;4.90;;;;;;;9.69;56.51;94644.66;5013062;28;20175;-77
2022/01/02 05:48:06;;;;;;;6.32;4.22;;;;;;;9.99;55.91;94665.47;5021332;28;20409;-76
2022/01/02 05:50:32;;;;;;;5.32;3.90;;;;;;;10.19;55.59;94664.38;4999639;28;20144;-77
2022/01/02 05:52:57;;;;;;;5.53;3.42;;;;;;;10.10;54.79;94656.28;5017951;28;20025;-77
2022/01/02 05:55:22;;;;;;;5.80;3.70;;;;;;;10.29;54.50;94669.53;5018424;28;20544;-75
2022/01/02 05:57:48;;;;;;;5.97;4.30;;;;;;;10.39;54.50;94674.72;5007055;28;20609;-76
2022/01/02 06:00:13;;;;;;;6.32;4.20;;;;;;;10.40;54.08;94670.22;5019234;28;20853;-76
2022/01/02 06:02:39;;;;;;;6.90;3.97;;;;;;;10.05;54.57;94648.38;5015364;28;20059;-76
2022/01/02 06:05:06;;;;;;;4.28;3.33;;;;;;;10.23;55.11;94671.50;5013745;28;20088;-76
2022/01/02 06:07:32;;;;;;;5.68;3.42;;;;;;;10.26;54.50;94662.94;5015826;28;20053;-76
2022/01/02 06:09:57;;;;;;;5.00;3.22;;;;;;;10.46;54.54;94685.00;5021412;28;20138;-76
2022/01/02 06:12:26;;;;;;;5.75;3.35;;;;;;;10.20;54.15;94645.50;5012970;28;20036;-76
2022/01/02 06:14:51;;;;;;;6.68;3.10;;;;;;;10.15;54.91;94688.09;5022899;28;20575;-76
2022/01/02 06:17:16;;;;;;;4.97;3.47;;;;;;;10.10;54.56;94661.59;5014789;28;20045;-77
2022/01/02 06:19:42;;;;;;;6.32;3.63;;;;;;;9.95;55.03;94672.44;5021486;28;20033;-76
2022/01/02 06:22:07;;;;;;;3.42;2.92;;;;;;;9.81;55.05;94666.28;5024086;28;20068;-76
2022/01/02 06:24:32;;;;;;;5.60;3.78;;;;;;;9.82;55.26;94691.78;5006047;28;20416;-77
2022/01/02 06:26:58;;;;;;;4.85;3.58;;;;;;;9.73;55.10;94665.03;5009803;28;20528;-76
2022/01/02 06:29:24;;;;;;;6.60;3.88;;;;;;;9.80;55.32;94667.34;5018005;28;20037;-76
2022/01/02 06:31:49;;;;;;;5.38;3.53;;;;;;;9.94;54.98;94694.78;5022850;28;20830;-76
2022/01/02 06:34:15;;;;;;;4.75;3.58;;;;;;;9.90;55.01;94701.75;5022558;28;20371;-76
2022/01/02 06:36:41;;;;;;;4.13;3.15;;;;;;;9.91;54.99;94706.00;5019789;28;20041;-76
2022/01/02 06:39:06;;;;;;;6.07;3.80;;;;;;;9.88;55.03;94672.78;5004500;28;20072;-76
2022/01/02 06:41:32;;;;;;;4.60;3.40;;;;;;;9.91;54.58;94684.72;5023173;28;20037;-76
2022/01/02 06:43:57;;;;;;;5.38;4.00;;;;;;;9.95;54.87;94685.72;5017026;28;20030;-77
2022/01/02 06:46:22;;;;;;;5.20;3.28;;;;;;;10.11;54.64;94687.09;5018658;28;20033;-76
2022/01/02 06:48:48;;;;;;;3.75;3.10;;;;;;;10.10;54.64;94698.00;5023023;28;20037;-76
2022/01/02 06:51:13;;;;;;;4.68;3.60;;;;;;;10.12;54.57;94695.88;5001697;28;20030;-76
2022/01/02 06:53:39;;;;;;;5.07;3.85;;;;;;;10.21;54.59;94697.59;5023010;28;20494;-76
2022/01/02 06:56:04;;;;;;;5.82;3.70;;;;;;;9.54;54.03;94592.53;5019030;28;20505;-76
2022/01/02 06:58:30;;;;;;;5.22;3.47;;;;;;;10.21;54.14;94705.56;5018137;28;20044;-76
2022/01/02 07:00:56;;;;;;;4.55;3.33;;;;;;;9.99;54.41;94692.06;5016716;28;20819;-76
2022/01/02 07:03:24;;;;;;;4.93;3.53;;;;;;;9.93;54.86;94725.09;5005908;28;20049;-75
2022/01/02 07:05:50;;;;;;;4.78;3.25;;;;;;;10.04;55.11;94726.53;5012922;28;20029;-77
2022/01/02 07:08:15;;;;;;;4.32;3.47;;;;;;;10.05;54.99;94725.47;5021083;28;20397;-77
2022/01/02 07:10:40;;;;;;;5.63;3.83;;;;;;;9.91;54.76;94721.13;5026672;28;20135;-76
2022/01/02 07:13:06;;;;;;;3.78;2.85;;;;;;;9.92;55.14;94733.34;5022750;28;20033;-76
2022/01/02 07:15:31;;;;;;;4.20;3.20;;;;;;;9.68;55.50;94736.06;5028064;28;20061;-76
2022/01/02 07:17:57;;;;;;;4.28;2.70;;;;;;;9.73;55.65;94725.38;5021658;28;20501;-76
2022/01/02 07:20:22;;;;;;;6.82;3.60;;;;;;;9.83;55.31;94746.47;5023118;28;20071;-77
2022/01/02 07:22:48;;;;;;;9.13;3.35;;;;;;;9.89;55.28;94738.16;5010556;28;20408;-76
2022/01/02 07:25:13;;;;;;;8.82;4.70;;;;;;;10.11;54.71;94742.94;5019473;28;20509;-77
2022/01/02 07:27:39;;;;;;;6.68;4.03;;;;;;;10.20;54.09;94729.78;5026190;28;20119;-77
2022/01/02 07:30:05;;;;;;;3.70;3.05;;;;;;;10.19;54.24;94731.63;5022630;28;20435;-76
2022/01/02 07:32:31;;;;;;;5.80;3.05;;;;;;;10.23;53.99;94740.59;5020510;28;20099;-76
2022/01/02 07:34:56;;;;;;;6.72;4.65;;;;;;;10.37;53.81;94753.22;5016683;28;20029;-77
2022/01/02 07:37:22;;;;;;;6.15;4.15;;;;;;;10.40;53.53;94749.97;5024957;28;20493;-77
2022/01/02 07:39:47;;;;;;;5.82;4.03;;;;;;;10.52;53.87;94756.44;5013652;28;20573;-76
2022/01/02 07:42:13;;;;;;;7.30;4.88;;;;;;;10.52;53.37;94747.66;5011750;28;20044;-76
2022/01/02 07:44:38;;;;;;;5.75;4.15;;;;;;;10.37;53.82;94723.97;5000895;28;20048;-76
2022/01/02 07:47:05;;;;;;;6.65;3.80;;;;;;;10.12;54.17;94731.19;5006582;28;20370;-76
2022/01/02 07:49:30;;;;;;;4.50;3.38;;;;;;;9.98;54.85;94743.63;5024944;28;20135;-76
2022/01/02 07:51:57;;;;;;;6.63;3.53;;;;;;;9.85;55.47;94760.28;5015726;28;20080;-75
2022/01/02 07:54:24;;;;;;;8.13;4.65;;;;;;;9.74;55.69;94730.38;5029579;28;20043;-77
2022/01/02 07:56:50;;;;;;;8.65;5.55;;;;;;;9.97;55.63;94758.00;5000427;28;20080;-76
2022/01/02 07:59:15;;;;;;;6.38;4.93;;;;;;;9.94;55.68;94753.25;5015999;28;20124;-76
2022/01/02 08:01:40;;;;;;;8.32;5.15;;;;;;;9.81;56.38;94732.69;5019698;28;20025;-77
2022/01/02 08:04:09;;;;;;;4.65;3.33;;;;;;;9.96;55.88;94750.31;5019182;28;20041;-76
2022/01/02 08:06:35;;;;;;;7.28;4.68;;;;;;;10.07;55.75;94757.88;5017273;28;20057;-76
2022/01/02 08:09:00;;;;;;;7.05;4.28;;;;;;;10.15;55.54;94743.13;5025385;28;20148;-76
2022/01/02 08:11:26;;;;;;;3.53;3.20;;;;;;;10.12;54.74;94752.47;5024366;28;20033;-76
2022/01/02 08:13:51;;;;;;;7.20;4.78;;;;;;;10.15;54.86;94748.44;5021701;28;20492;-76
2022/01/02 08:16:17;;;;;;;7.70;5.30;;;;;;;10.21;54.60;94745.44;5011896;28;20120;-75
2022/01/02 08:18:42;;;;;;;7.10;4.30;;;;;;;10.28;54.13;94763.66;5028427;28;20403;-76
2022/01/02 08:21:09;;;;;;;4.28;3.85;;;;;;;10.01;54.66;94737.75;5000741;28;20570;-76
2022/01/02 08:23:34;;;;;;;5.47;3.45;;;;;;;9.92;54.62;94728.84;5012272;28;20377;-76
2022/01/02 08:26:00;;;;;;;4.00;3.25;;;;;;;9.99;54.71;94763.81;5017303;28;20369;-76
2022/01/02 08:28:26;;;;;;;4.75;3.35;;;;;;;10.04;54.84;94763.75;5016180;28;20068;-76
2022/01/02 08:30:51;;;;;;;6.65;3.95;;;;;;;9.79;54.96;94740.94;5018304;28;20081;-76
2022/01/02 08:33:17;;;;;;;8.13;4.47;;;;;;;10.04;55.15;94763.75;5023954;28;20060;-76
2022/01/02 08:35:44;;;;;;;5.93;4.18;;;;;;;10.08;55.14;94754.13;5019328;28;20517;-76
2022/01/02 08:38:10;;;;;;;7.82;4.50;;;;;;;10.00;54.88;94741.47;5007165;28;20045;-76
2022/01/02 08:40:40;;;;;;;6.10;3.38;;;;;;;9.94;55.25;94747.94;5012598;28;20374;-75
2022/01/02 08:43:09;;;;;;;5.40;2.95;;;;;;;10.00;55.22;94757.41;5013670;28;20516;-75
2022/01/02 08:45:36;;;;;;;7.03;5.13;;;;;;;9.96;54.67;94745.78;5006282;28;20037;-77
2022/01/02 08:48:03;;;;;;;6.47;5.07;;;;;;;10.20;54.50;94743.06;5005158;28;20056;-76
2022/01/02 08:50:28;;;;;;;5.60;4.03;;;;;;;10.24;53.91;94702.31;5020984;28;20053;-76
2022/01/02 08:52:53;;;;;;;8.35;4.80;;;;;;;10.58;52.90;94747.31;5005803;28;20025;-77
2022/01/02 08:55:19;;;;;;;5.13;3.92;;;;;;;10.54;52.51;94734.88;5023574;28;20037;-77
2022/01/02 08:57:44;;;;;;;6.18;3.13;;;;;;;10.65;52.67;94747.72;5018716;28;20525;-77
2022/01/02 09:00:11;;;;;;;4.82;3.60;;;;;;;10.79;51.44;94746.97;5024081;28;20041;-77
2022/01/02 09:02:36;;;;;;;6.57;4.47;;;;;;;10.66;51.49;94737.88;5018352;28;21086;-77
2022/01/02 09:05:03;;;;;;;5.47;3.40;;;;;;;10.45;51.55;94750.69;5016055;28;20500;-76
2022/01/02 09:07:28;;;;;;;4.53;2.55;;;;;;;10.40;51.22;94742.00;5017044;28;20028;-76
2022/01/02 09:09:55;;;;;;;4.28;3.00;;;;;;;10.28;51.64;94748.50;5012986;28;20628;-76
2022/01/02 09:12:20;;;;;;;5.57;4.13;;;;;;;10.15;52.41;94743.13;5016873;28;20041;-77
2022/01/02 09:14:46;;;;;;;6.25;3.65;;;;;;;10.33;52.00;94729.81;5020294;28;20037;-77
2022/01/02 09:17:11;;;;;;;4.03;2.90;;;;;;;10.27;51.63;94720.34;5012334;28;20049;-77
2022/01/02 09:19:37;;;;;;;4.72;3.15;;;;;;;10.50;51.51;94731.22;5020548;28;20393;-78
2022/01/02 09:22:03;;;;;;;4.38;3.22;;;;;;;10.48;50.42;94715.53;5004114;28;20056;-78
2022/01/02 09:24:29;;;;;;;5.57;3.53;;;;;;;10.48;51.18;94717.41;5001976;28;20044;-77
2022/01/02 09:26:56;;;;;;;3.00;2.80;;;;;;;10.62;51.47;94721.69;5020407;28;20045;-77
2022/01/02 09:29:22;;;;;;;3.75;2.88;;;;;;;10.44;50.46;94703.91;5015804;28;20239;-76
2022/01/02 09:31:51;;;;;;;4.60;3.00;;;;;;;10.66;50.64;94700.63;5014913;28;20381;-77
2022/01/02 09:34:16;;;;;;;4.35;2.80;;;;;;;10.60;50.28;94685.84;5021199;28;20618;-77
2022/01/02 09:36:42;;;;;;;3.70;2.65;;;;;;;10.69;50.13;94698.19;5000941;28;20038;-76
2022/01/02 09:39:07;;;;;;;4.32;2.85;;;;;;;10.78;50.13;94698.28;5019417;28;20072;-76
2022/01/02 09:41:33;;;;;;;4.43;2.67;;;;;;;10.63;50.30;94661.31;5004295;28;20067;-77
2022/01/02 09:43:58;;;;;;;5.10;2.95;;;;;;;10.70;50.06;94670.50;5012363;28;20033;-77
2022/01/02 09:46:28;;;;;;;3.83;3.25;;;;;;;10.86;49.69;94678.97;5015025;28;20068;-77
2022/01/02 09:48:55;;;;;;;7.38;3.75;;;;;;;10.72;49.82;94665.66;5017914;28;20509;-76
2022/01/02 09:51:25;;;;;;;3.75;2.42;;;;;;;10.64;49.74;94660.22;5018813;28;20140;-76
2022/01/02 09:53:52;;;;;;;2.88;1.88;;;;;;;10.73;49.71;94669.09;5021980;28;20604;-76
2022/01/02 09:56:19;;;;;;;3.63;2.72;;;;;;;10.50;50.00;94630.16;5016938;28;20071;-75
2022/01/02 09:58:45;;;;;;;4.05;2.97;;;;;;;10.63;49.96;94667.41;5014719;28;20392;-76
2022/01/02 10:01:22;;;;;;;3.50;2.70;;;;;;;10.49;50.30;94641.84;5013790;28;20042;-77
2022/01/02 10:03:51;;;;;;;4.00;3.22;;;;;;;10.41;50.59;94639.88;5016085;28;20695;-77
2022/01/02 10:06:17;;;;;;;3.70;2.58;;;;;;;10.48;50.16;94638.41;5000013;28;21093;-78
2022/01/02 10:08:44;;;;;;;2.40;1.92;;;;;;;10.68;49.88;94653.22;5021099;28;20047;-77
2022/01/02 10:11:24;;;;;;;4.07;2.95;;;;;;;10.88;50.20;94655.53;5018382;28;20071;-77
2022/01/02 10:13:54;;;;;;;4.05;2.70;;;;;;;10.71;50.31;94650.75;5019484;28;20034;-77
2022/01/02 10:16:19;;;;;;;4.30;2.90;;;;;;;10.92;50.05;94664.50;5002659;28;20159;-76
2022/01/02 10:18:45;;;;;;;3.15;2.55;;;;;;;11.00;49.64;94657.72;5021527;28;20578;-77
2022/01/02 10:21:11;;;;;;;5.15;3.03;;;;;;;10.86;49.87;94651.56;5000004;28;20670;-76
2022/01/02 10:23:43;;;;;;;3.92;2.90;;;;;;;10.80;49.55;94640.25;4999465;28;20049;-75
2022/01/02 10:26:09;;;;;;;4.68;2.22;;;;;;;10.82;49.63;94642.59;5018778;28;20032;-76
2022/01/02 10:28:39;;;;;;;4.15;2.40;;;;;;;11.03;49.43;94641.16;5002666;28;20019;-76
2022/01/02 10:31:08;;;;;;;4.93;2.67;;;;;;;11.01;49.72;94632.66;5013195;28;20065;-76
2022/01/02 10:33:50;;;;;;;9.48;2.95;;;;;;;11.00;49.57;94642.50;5020595;28;20729;-76
2022/01/02 10:36:32;;;;;;;5.90;3.15;;;;;;;10.87;49.82;94632.66;5011698;28;20532;-76
2022/01/02 10:39:22;;;;;;;4.60;3.15;;;;;;;11.04;49.64;94624.91;5011973;28;20084;-75
2022/01/02 10:41:50;;;;;;;4.20;2.85;;;;;;;11.14;48.97;94622.03;5015962;28;20425;-77
2022/01/02 10:44:30;;;;;;;3.75;2.65;;;;;;;11.07;49.43;94605.66;5012550;28;20569;-76
2022/01/02 10:47:21;;;;;;;2.38;2.17;;;;;;;11.10;49.33;94621.03;5016664;28;20029;-76
2022/01/02 10:50:07;;;;;;;2.65;2.38;;;;;;;11.18;48.90;94622.22;5013198;28;20026;-76
2022/01/02 10:52:40;;;;;;;2.97;2.30;;;;;;;10.90;49.52;94584.19;5012027;28;20044;-76
2022/01/02 10:55:22;;;;;;;2.90;2.60;;;;;;;11.30;49.12;94613.72;5011014;28;20048;-76
2022/01/02 10:57:49;;;;;;;3.38;2.33;;;;;;;11.36;48.21;94617.84;5014845;28;20372;-76
2022/01/02 11:00:20;;;;;;;5.10;2.65;;;;;;;11.14;48.84;94606.06;5002095;28;20568;-77
2022/01/02 11:02:46;;;;;;;3.13;2.30;;;;;;;10.78;49.24;94575.88;5018170;28;20045;-76
2022/01/02 11:05:14;;;;;;;4.15;2.17;;;;;;;11.21;48.79;94620.84;5014368;28;20144;-76
2022/01/02 11:07:55;;;;;;;3.08;2.17;;;;;;;11.11;48.99;94600.53;5011466;28;20045;-76
2022/01/02 11:10:23;;;;;;;3.20;1.88;;;;;;;11.26;48.95;94604.75;5018349;28;20045;-76
2022/01/02 11:12:50;;;;;;;3.50;2.00;;;;;;;11.31;48.88;94600.13;5001070;28;20476;-77
2022/01/02 11:15:18;;;;;;;2.42;1.98;;;;;;;11.38;48.68;94578.41;4998509;28;20029;-76
2022/01/02 11:17:44;;;;;;;2.63;2.42;;;;;;;11.22;48.58;94579.81;5014523;28;20188;-76
2022/01/02 11:20:15;;;;;;;3.72;2.30;;;;;;;11.39;48.35;94569.34;4995731;28;20045;-76
2022/01/02 11:22:47;;;;;;;5.20;2.88;;;;;;;11.39;47.79;94567.47;5013076;28;20027;-76
2022/01/02 11:25:40;;;;;;;2.67;2.05;;;;;;;11.61;47.78;94580.06;5017327;28;20589;-77
2022/01/02 11:28:13;;;;;;;3.17;1.98;;;;;;;11.57;47.56;94566.56;5010696;28;20045;-77
2022/01/02 11:30:41;;;;;;;3.03;2.22;;;;;;;11.53;47.81;94554.16;5019159;28;20040;-77
2022/01/02 11:33:10;;;;;;;3.67;2.03;;;;;;;11.63;47.53;94556.56;5018833;28;20061;-76
2022/01/02 11:35:39;;;;;;;3.78;2.45;;;;;;;11.71;46.87;94555.84;5012928;28;20045;-77
2022/01/02 11:38:06;;;;;;;4.32;2.40;;;;;;;11.73;47.29;94552.91;5011365;28;20032;-76
2022/01/02 11:40:43;;;;;;;4.90;2.10;;;;;;;11.70;46.93;94580.13;5014466;28;20044;-77
2022/01/02 11:43:09;;;;;;;3.40;2.25;;;;;;;11.85;47.32;94564.59;5004674;28;20527;-77
2022/01/02 11:45:34;;;;;;;3.55;2.22;;;;;;;11.90;47.05;94575.13;5014324;28;20038;-76